sensor_id;sensor_type;location;lat;lon;timestamp;temperature;humidity
28520;DHT22;15732;48.534;20.382;2024-03-07T00:01:22;8.40;99.90
28520;DHT22;15732;48.534;20.382;2024-03-07T00:03:55;8.20;99.90
28520;DHT22;15732;48.534;20.382;2024-03-07T00:06:23;8.20;99.90
28520;DHT22;15732;48.534;20.382;2024-03-07T00:08:50;8.20;99.90
28520;DHT22;15732;48.534;20.382;2024-03-07T00:11:18;8.20;99.90
28520;DHT22;15732;48.534;20.382;2024-03-07T00:13:45;8.20;99.90
28520;DHT22;15732;48.534;20.382;2024-03-07T00:16:12;8.10;99.90
28520;DHT22;15732;48.534;20.382;2024-03-07T00:18:39;8.00;99.90
28520;DHT22;15732;48.534;20.382;2024-03-07T00:21:07;8.00;99.90
28520;DHT22;15732;48.534;20.382;2024-03-07T00:23:35;7.90;99.90
28520;DHT22;15732;48.534;20.382;2024-03-07T00:26:02;7.90;99.90
28520;DHT22;15732;48.534;20.382;2024-03-07T00:28:30;7.90;99.90
28520;DHT22;15732;48.534;20.382;2024-03-07T00:30:59;7.90;99.90
28520;DHT22;15732;48.534;20.382;2024-03-07T00:33:26;7.90;99.90
28520;DHT22;15732;48.534;20.382;2024-03-07T00:35:53;7.80;99.90
28520;DHT22;15732;48.534;20.382;2024-03-07T00:38:21;7.80;99.90
28520;DHT22;15732;48.534;20.382;2024-03-07T00:40:48;7.80;99.90
28520;DHT22;15732;48.534;20.382;2024-03-07T00:43:15;7.70;99.90
28520;DHT22;15732;48.534;20.382;2024-03-07T00:45:42;7.80;99.90
28520;DHT22;15732;48.534;20.382;2024-03-07T00:48:10;7.80;99.90
28520;DHT22;15732;48.534;20.382;2024-03-07T00:50:37;7.80;99.90
28520;DHT22;15732;48.534;20.382;2024-03-07T00:53:05;7.80;99.90
28520;DHT22;15732;48.534;20.382;2024-03-07T00:55:32;7.80;99.90
28520;DHT22;15732;48.534;20.382;2024-03-07T00:58:04;7.80;99.90
28520;DHT22;15732;48.534;20.382;2024-03-07T01:00:31;7.80;99.90
28520;DHT22;15732;48.534;20.382;2024-03-07T01:02:58;7.90;99.90
28520;DHT22;15732;48.534;20.382;2024-03-07T01:05:25;7.80;99.90
28520;DHT22;15732;48.534;20.382;2024-03-07T01:07:53;7.80;99.90
28520;DHT22;15732;48.534;20.382;2024-03-07T01:10:25;7.80;99.90
28520;DHT22;15732;48.534;20.382;2024-03-07T01:12:52;7.80;99.90
28520;DHT22;15732;48.534;20.382;2024-03-07T01:15:27;7.80;99.90
28520;DHT22;15732;48.534;20.382;2024-03-07T01:17:57;7.80;99.90
28520;DHT22;15732;48.534;20.382;2024-03-07T01:20:24;7.60;99.90
28520;DHT22;15732;48.534;20.382;2024-03-07T01:22:55;7.70;99.90
28520;DHT22;15732;48.534;20.382;2024-03-07T01:25:26;7.70;99.90
28520;DHT22;15732;48.534;20.382;2024-03-07T01:27:53;7.60;99.90
28520;DHT22;15732;48.534;20.382;2024-03-07T01:30:22;7.60;99.90
28520;DHT22;15732;48.534;20.382;2024-03-07T01:32:51;7.30;99.90
28520;DHT22;15732;48.534;20.382;2024-03-07T01:35:23;7.30;99.90
28520;DHT22;15732;48.534;20.382;2024-03-07T01:37:50;7.30;99.90
28520;DHT22;15732;48.534;20.382;2024-03-07T01:40:17;7.30;99.90
28520;DHT22;15732;48.534;20.382;2024-03-07T01:42:50;7.30;99.90
28520;DHT22;15732;48.534;20.382;2024-03-07T01:45:20;7.30;99.90
28520;DHT22;15732;48.534;20.382;2024-03-07T01:47:51;7.20;99.90
28520;DHT22;15732;48.534;20.382;2024-03-07T01:50:22;7.20;99.90
28520;DHT22;15732;48.534;20.382;2024-03-07T01:52:53;7.30;99.90
28520;DHT22;15732;48.534;20.382;2024-03-07T01:55:25;7.20;99.90
28520;DHT22;15732;48.534;20.382;2024-03-07T01:57:59;7.30;99.90
28520;DHT22;15732;48.534;20.382;2024-03-07T02:00:29;7.20;99.90
28520;DHT22;15732;48.534;20.382;2024-03-07T02:03:00;7.20;99.90
28520;DHT22;15732;48.534;20.382;2024-03-07T02:05:32;7.20;99.90
28520;DHT22;15732;48.534;20.382;2024-03-07T02:08:04;7.10;99.90
28520;DHT22;15732;48.534;20.382;2024-03-07T02:10:31;7.10;99.90
28520;DHT22;15732;48.534;20.382;2024-03-07T02:13:03;7.10;99.90
28520;DHT22;15732;48.534;20.382;2024-03-07T02:15:30;7.10;99.90
28520;DHT22;15732;48.534;20.382;2024-03-07T02:17:58;7.10;99.90
28520;DHT22;15732;48.534;20.382;2024-03-07T02:20:26;7.10;99.90
28520;DHT22;15732;48.534;20.382;2024-03-07T02:22:54;7.00;99.90
28520;DHT22;15732;48.534;20.382;2024-03-07T02:25:21;7.10;99.90
28520;DHT22;15732;48.534;20.382;2024-03-07T02:27:48;7.10;99.90
28520;DHT22;15732;48.534;20.382;2024-03-07T02:30:16;7.00;99.90
28520;DHT22;15732;48.534;20.382;2024-03-07T02:32:46;6.90;99.90
28520;DHT22;15732;48.534;20.382;2024-03-07T02:35:18;6.90;99.90
28520;DHT22;15732;48.534;20.382;2024-03-07T02:37:49;7.00;99.90
28520;DHT22;15732;48.534;20.382;2024-03-07T02:40:16;6.90;99.90
28520;DHT22;15732;48.534;20.382;2024-03-07T02:42:44;7.00;99.90
28520;DHT22;15732;48.534;20.382;2024-03-07T02:45:15;7.00;99.90
28520;DHT22;15732;48.534;20.382;2024-03-07T02:47:42;7.00;99.90
28520;DHT22;15732;48.534;20.382;2024-03-07T02:50:11;7.00;99.90
28520;DHT22;15732;48.534;20.382;2024-03-07T02:52:38;7.10;99.90
28520;DHT22;15732;48.534;20.382;2024-03-07T02:55:05;7.10;99.90
28520;DHT22;15732;48.534;20.382;2024-03-07T02:57:37;7.00;99.90
28520;DHT22;15732;48.534;20.382;2024-03-07T03:00:08;7.10;99.90
28520;DHT22;15732;48.534;20.382;2024-03-07T03:02:53;7.00;99.90
28520;DHT22;15732;48.534;20.382;2024-03-07T03:05:20;7.00;99.90
28520;DHT22;15732;48.534;20.382;2024-03-07T03:07:47;7.00;99.90
28520;DHT22;15732;48.534;20.382;2024-03-07T03:10:26;7.10;99.90
28520;DHT22;15732;48.534;20.382;2024-03-07T03:12:56;7.10;99.90
28520;DHT22;15732;48.534;20.382;2024-03-07T03:15:25;7.10;99.90
28520;DHT22;15732;48.534;20.382;2024-03-07T03:17:52;7.10;99.90
28520;DHT22;15732;48.534;20.382;2024-03-07T03:20:19;7.20;99.90
28520;DHT22;15732;48.534;20.382;2024-03-07T03:22:57;7.20;99.90
28520;DHT22;15732;48.534;20.382;2024-03-07T03:25:25;7.20;99.90
28520;DHT22;15732;48.534;20.382;2024-03-07T03:27:56;7.20;99.90
28520;DHT22;15732;48.534;20.382;2024-03-07T03:30:23;7.30;99.90
28520;DHT22;15732;48.534;20.382;2024-03-07T03:32:50;7.20;99.90
28520;DHT22;15732;48.534;20.382;2024-03-07T03:35:18;7.30;99.90
28520;DHT22;15732;48.534;20.382;2024-03-07T03:37:45;7.30;99.90
28520;DHT22;15732;48.534;20.382;2024-03-07T03:40:13;7.20;99.90
28520;DHT22;15732;48.534;20.382;2024-03-07T03:42:41;7.30;99.90
28520;DHT22;15732;48.534;20.382;2024-03-07T03:45:09;7.30;99.90
28520;DHT22;15732;48.534;20.382;2024-03-07T03:47:42;7.30;99.90
28520;DHT22;15732;48.534;20.382;2024-03-07T03:50:14;7.30;99.90
28520;DHT22;15732;48.534;20.382;2024-03-07T03:52:42;7.30;99.90
28520;DHT22;15732;48.534;20.382;2024-03-07T03:55:08;7.30;99.90
28520;DHT22;15732;48.534;20.382;2024-03-07T03:57:40;7.20;99.90
28520;DHT22;15732;48.534;20.382;2024-03-07T04:00:11;7.20;99.90
28520;DHT22;15732;48.534;20.382;2024-03-07T04:02:46;7.30;99.90
28520;DHT22;15732;48.534;20.382;2024-03-07T04:05:18;7.20;99.90
28520;DHT22;15732;48.534;20.382;2024-03-07T04:07:49;7.20;99.90
28520;DHT22;15732;48.534;20.382;2024-03-07T04:10:17;7.10;99.90
28520;DHT22;15732;48.534;20.382;2024-03-07T04:12:48;7.20;99.90
28520;DHT22;15732;48.534;20.382;2024-03-07T04:15:16;7.20;99.90
28520;DHT22;15732;48.534;20.382;2024-03-07T04:17:43;7.10;99.90
28520;DHT22;15732;48.534;20.382;2024-03-07T04:20:30;7.10;99.90
28520;DHT22;15732;48.534;20.382;2024-03-07T04:22:57;7.10;99.90
28520;DHT22;15732;48.534;20.382;2024-03-07T04:25:24;7.10;99.90
28520;DHT22;15732;48.534;20.382;2024-03-07T04:27:55;7.10;99.90
28520;DHT22;15732;48.534;20.382;2024-03-07T04:30:22;7.10;99.90
28520;DHT22;15732;48.534;20.382;2024-03-07T04:32:50;7.10;99.90
28520;DHT22;15732;48.534;20.382;2024-03-07T04:35:18;7.00;99.90
28520;DHT22;15732;48.534;20.382;2024-03-07T04:37:45;7.00;99.90
28520;DHT22;15732;48.534;20.382;2024-03-07T04:40:13;7.00;99.90
28520;DHT22;15732;48.534;20.382;2024-03-07T04:42:48;6.90;99.90
28520;DHT22;15732;48.534;20.382;2024-03-07T04:45:16;7.00;99.90
28520;DHT22;15732;48.534;20.382;2024-03-07T04:47:44;7.00;99.90
28520;DHT22;15732;48.534;20.382;2024-03-07T04:50:15;6.90;99.90
28520;DHT22;15732;48.534;20.382;2024-03-07T04:52:48;7.00;99.90
28520;DHT22;15732;48.534;20.382;2024-03-07T04:55:15;7.00;99.90
28520;DHT22;15732;48.534;20.382;2024-03-07T04:57:43;7.00;99.90
28520;DHT22;15732;48.534;20.382;2024-03-07T05:00:13;7.00;99.90
28520;DHT22;15732;48.534;20.382;2024-03-07T05:02:41;6.90;99.90
28520;DHT22;15732;48.534;20.382;2024-03-07T05:05:08;6.80;99.90
28520;DHT22;15732;48.534;20.382;2024-03-07T05:07:39;6.80;99.90
28520;DHT22;15732;48.534;20.382;2024-03-07T05:10:11;6.80;99.90
28520;DHT22;15732;48.534;20.382;2024-03-07T05:12:42;6.80;99.90
28520;DHT22;15732;48.534;20.382;2024-03-07T05:15:13;6.80;99.90
28520;DHT22;15732;48.534;20.382;2024-03-07T05:17:44;6.80;99.90
28520;DHT22;15732;48.534;20.382;2024-03-07T05:20:15;6.80;99.90
28520;DHT22;15732;48.534;20.382;2024-03-07T05:22:46;6.80;99.90
28520;DHT22;15732;48.534;20.382;2024-03-07T05:25:20;6.90;99.90
28520;DHT22;15732;48.534;20.382;2024-03-07T05:27:51;6.80;99.90
28520;DHT22;15732;48.534;20.382;2024-03-07T05:30:19;6.80;99.90
28520;DHT22;15732;48.534;20.382;2024-03-07T05:32:46;6.80;99.90
28520;DHT22;15732;48.534;20.382;2024-03-07T05:35:17;6.70;99.90
28520;DHT22;15732;48.534;20.382;2024-03-07T05:37:48;6.70;99.90
28520;DHT22;15732;48.534;20.382;2024-03-07T05:40:20;6.60;99.90
28520;DHT22;15732;48.534;20.382;2024-03-07T05:42:47;6.60;99.90
28520;DHT22;15732;48.534;20.382;2024-03-07T05:45:14;6.60;99.90
28520;DHT22;15732;48.534;20.382;2024-03-07T05:47:44;6.60;99.90
28520;DHT22;15732;48.534;20.382;2024-03-07T05:50:14;6.60;99.90
28520;DHT22;15732;48.534;20.382;2024-03-07T05:52:41;6.50;99.90
28520;DHT22;15732;48.534;20.382;2024-03-07T05:55:09;6.60;99.90
28520;DHT22;15732;48.534;20.382;2024-03-07T05:57:37;6.60;99.90
28520;DHT22;15732;48.534;20.382;2024-03-07T06:00:06;6.60;99.90
28520;DHT22;15732;48.534;20.382;2024-03-07T06:02:36;6.60;99.90
28520;DHT22;15732;48.534;20.382;2024-03-07T06:05:07;6.60;99.90
28520;DHT22;15732;48.534;20.382;2024-03-07T06:07:42;6.60;99.90
28520;DHT22;15732;48.534;20.382;2024-03-07T06:10:09;6.60;99.90
28520;DHT22;15732;48.534;20.382;2024-03-07T06:12:37;6.60;99.90
28520;DHT22;15732;48.534;20.382;2024-03-07T06:15:14;6.60;99.90
28520;DHT22;15732;48.534;20.382;2024-03-07T06:17:41;6.60;99.90
28520;DHT22;15732;48.534;20.382;2024-03-07T06:20:15;6.60;99.90
28520;DHT22;15732;48.534;20.382;2024-03-07T06:22:51;6.70;99.90
28520;DHT22;15732;48.534;20.382;2024-03-07T06:25:19;6.70;99.90
28520;DHT22;15732;48.534;20.382;2024-03-07T06:28:03;6.60;99.90
28520;DHT22;15732;48.534;20.382;2024-03-07T06:30:41;6.60;99.90
28520;DHT22;15732;48.534;20.382;2024-03-07T06:33:09;6.70;99.90
28520;DHT22;15732;48.534;20.382;2024-03-07T06:35:37;6.60;99.90
28520;DHT22;15732;48.534;20.382;2024-03-07T06:38:06;6.70;99.90
28520;DHT22;15732;48.534;20.382;2024-03-07T06:40:35;6.70;99.90
28520;DHT22;15732;48.534;20.382;2024-03-07T06:43:07;6.80;99.90
28520;DHT22;15732;48.534;20.382;2024-03-07T06:45:37;6.70;99.90
28520;DHT22;15732;48.534;20.382;2024-03-07T06:48:08;6.70;99.90
28520;DHT22;15732;48.534;20.382;2024-03-07T06:50:39;6.70;99.90
28520;DHT22;15732;48.534;20.382;2024-03-07T06:53:07;6.70;99.90
28520;DHT22;15732;48.534;20.382;2024-03-07T06:55:34;6.60;99.90
28520;DHT22;15732;48.534;20.382;2024-03-07T06:58:06;6.70;99.90
28520;DHT22;15732;48.534;20.382;2024-03-07T07:00:33;6.70;99.90
28520;DHT22;15732;48.534;20.382;2024-03-07T07:03:05;6.60;99.90
28520;DHT22;15732;48.534;20.382;2024-03-07T07:05:32;6.60;99.90
28520;DHT22;15732;48.534;20.382;2024-03-07T07:08:00;6.50;99.90
28520;DHT22;15732;48.534;20.382;2024-03-07T07:10:31;6.60;99.90
28520;DHT22;15732;48.534;20.382;2024-03-07T07:12:58;6.60;99.90
28520;DHT22;15732;48.534;20.382;2024-03-07T07:15:32;6.60;99.90
28520;DHT22;15732;48.534;20.382;2024-03-07T07:18:00;6.60;99.90
28520;DHT22;15732;48.534;20.382;2024-03-07T07:20:31;6.60;99.90
28520;DHT22;15732;48.534;20.382;2024-03-07T07:23:04;6.60;99.90
28520;DHT22;15732;48.534;20.382;2024-03-07T07:25:35;6.60;99.90
28520;DHT22;15732;48.534;20.382;2024-03-07T07:28:06;6.60;99.90
28520;DHT22;15732;48.534;20.382;2024-03-07T07:30:34;6.70;99.90
28520;DHT22;15732;48.534;20.382;2024-03-07T07:33:05;6.60;99.90
28520;DHT22;15732;48.534;20.382;2024-03-07T07:35:32;6.60;99.90
28520;DHT22;15732;48.534;20.382;2024-03-07T07:38:04;6.60;99.90
28520;DHT22;15732;48.534;20.382;2024-03-07T07:40:33;6.50;99.90
28520;DHT22;15732;48.534;20.382;2024-03-07T07:43:05;6.50;99.90
28520;DHT22;15732;48.534;20.382;2024-03-07T07:45:36;6.60;99.90
28520;DHT22;15732;48.534;20.382;2024-03-07T07:48:08;6.50;99.90
28520;DHT22;15732;48.534;20.382;2024-03-07T07:50:40;6.50;99.90
28520;DHT22;15732;48.534;20.382;2024-03-07T07:53:11;6.50;99.90
28520;DHT22;15732;48.534;20.382;2024-03-07T07:55:39;6.50;99.90
28520;DHT22;15732;48.534;20.382;2024-03-07T07:58:07;6.50;99.90
28520;DHT22;15732;48.534;20.382;2024-03-07T08:00:34;6.60;99.90
28520;DHT22;15732;48.534;20.382;2024-03-07T08:03:03;6.60;99.90
28520;DHT22;15732;48.534;20.382;2024-03-07T08:05:39;6.60;99.90
28520;DHT22;15732;48.534;20.382;2024-03-07T08:08:10;6.70;99.90
28520;DHT22;15732;48.534;20.382;2024-03-07T08:10:43;6.70;99.90
28520;DHT22;15732;48.534;20.382;2024-03-07T08:13:12;6.80;99.90
28520;DHT22;15732;48.534;20.382;2024-03-07T08:15:39;6.70;99.90
28520;DHT22;15732;48.534;20.382;2024-03-07T08:18:07;6.80;99.90
28520;DHT22;15732;48.534;20.382;2024-03-07T08:20:37;6.70;99.90
28520;DHT22;15732;48.534;20.382;2024-03-07T08:23:04;6.80;99.90
28520;DHT22;15732;48.534;20.382;2024-03-07T08:25:31;6.70;99.90
28520;DHT22;15732;48.534;20.382;2024-03-07T08:28:02;6.60;99.90
28520;DHT22;15732;48.534;20.382;2024-03-07T08:30:31;6.70;99.90
28520;DHT22;15732;48.534;20.382;2024-03-07T08:32:59;6.80;99.90
28520;DHT22;15732;48.534;20.382;2024-03-07T08:35:32;6.80;99.90
28520;DHT22;15732;48.534;20.382;2024-03-07T08:38:03;6.90;99.90
28520;DHT22;15732;48.534;20.382;2024-03-07T08:40:31;6.80;99.90
28520;DHT22;15732;48.534;20.382;2024-03-07T08:42:59;6.90;99.90
28520;DHT22;15732;48.534;20.382;2024-03-07T08:45:30;6.90;99.90
28520;DHT22;15732;48.534;20.382;2024-03-07T08:48:02;6.90;99.90
28520;DHT22;15732;48.534;20.382;2024-03-07T08:50:36;6.90;99.90
28520;DHT22;15732;48.534;20.382;2024-03-07T08:53:06;6.90;99.90
28520;DHT22;15732;48.534;20.382;2024-03-07T08:55:38;6.80;99.90
28520;DHT22;15732;48.534;20.382;2024-03-07T08:58:05;6.80;99.90
28520;DHT22;15732;48.534;20.382;2024-03-07T09:00:35;6.90;99.90
28520;DHT22;15732;48.534;20.382;2024-03-07T09:03:02;6.90;99.90
28520;DHT22;15732;48.534;20.382;2024-03-07T09:05:30;6.90;99.90
28520;DHT22;15732;48.534;20.382;2024-03-07T09:08:00;6.90;99.90
28520;DHT22;15732;48.534;20.382;2024-03-07T09:10:27;7.00;99.90
28520;DHT22;15732;48.534;20.382;2024-03-07T09:12:59;7.00;99.90
28520;DHT22;15732;48.534;20.382;2024-03-07T09:15:30;7.00;99.90
28520;DHT22;15732;48.534;20.382;2024-03-07T09:18:03;6.90;99.90
28520;DHT22;15732;48.534;20.382;2024-03-07T09:20:35;6.90;99.90
28520;DHT22;15732;48.534;20.382;2024-03-07T09:23:03;7.00;99.90
28520;DHT22;15732;48.534;20.382;2024-03-07T09:25:30;7.00;99.90
28520;DHT22;15732;48.534;20.382;2024-03-07T09:28:02;7.10;99.90
28520;DHT22;15732;48.534;20.382;2024-03-07T09:30:30;7.00;99.90
28520;DHT22;15732;48.534;20.382;2024-03-07T09:33:01;7.10;99.90
28520;DHT22;15732;48.534;20.382;2024-03-07T09:35:33;7.10;99.90
28520;DHT22;15732;48.534;20.382;2024-03-07T09:38:00;7.10;99.90
28520;DHT22;15732;48.534;20.382;2024-03-07T09:40:27;7.10;99.90
28520;DHT22;15732;48.534;20.382;2024-03-07T09:42:56;7.10;99.90
28520;DHT22;15732;48.534;20.382;2024-03-07T09:45:29;7.10;99.90
28520;DHT22;15732;48.534;20.382;2024-03-07T09:48:01;7.10;99.90
28520;DHT22;15732;48.534;20.382;2024-03-07T09:50:30;7.10;99.90
28520;DHT22;15732;48.534;20.382;2024-03-07T09:53:03;7.20;99.90
28520;DHT22;15732;48.534;20.382;2024-03-07T09:55:34;7.20;99.90
28520;DHT22;15732;48.534;20.382;2024-03-07T09:58:07;7.20;99.90
28520;DHT22;15732;48.534;20.382;2024-03-07T10:00:37;7.20;99.90
28520;DHT22;15732;48.534;20.382;2024-03-07T10:03:09;7.10;99.90
28520;DHT22;15732;48.534;20.382;2024-03-07T10:05:40;7.10;99.90
28520;DHT22;15732;48.534;20.382;2024-03-07T10:08:11;7.10;99.90
28520;DHT22;15732;48.534;20.382;2024-03-07T10:10:45;7.20;99.90
28520;DHT22;15732;48.534;20.382;2024-03-07T10:13:16;7.20;99.90
28520;DHT22;15732;48.534;20.382;2024-03-07T10:15:47;7.20;99.90
28520;DHT22;15732;48.534;20.382;2024-03-07T10:18:19;7.20;99.90
28520;DHT22;15732;48.534;20.382;2024-03-07T10:20:53;7.20;99.90
28520;DHT22;15732;48.534;20.382;2024-03-07T10:23:22;7.20;99.90
28520;DHT22;15732;48.534;20.382;2024-03-07T10:25:53;7.20;99.90
28520;DHT22;15732;48.534;20.382;2024-03-07T10:28:21;7.20;99.90
28520;DHT22;15732;48.534;20.382;2024-03-07T10:30:53;7.20;99.90
28520;DHT22;15732;48.534;20.382;2024-03-07T10:33:19;7.20;99.90
28520;DHT22;15732;48.534;20.382;2024-03-07T10:35:53;7.20;99.90
28520;DHT22;15732;48.534;20.382;2024-03-07T10:38:24;7.20;99.90
28520;DHT22;15732;48.534;20.382;2024-03-07T10:40:54;7.20;99.90
28520;DHT22;15732;48.534;20.382;2024-03-07T10:43:27;7.20;99.90
28520;DHT22;15732;48.534;20.382;2024-03-07T10:45:57;7.10;99.90
28520;DHT22;15732;48.534;20.382;2024-03-07T10:48:29;7.10;99.90
28520;DHT22;15732;48.534;20.382;2024-03-07T10:51:21;7.00;99.90
28520;DHT22;15732;48.534;20.382;2024-03-07T10:54:29;7.00;99.90
28520;DHT22;15732;48.534;20.382;2024-03-07T10:59:38;6.80;99.90
28520;DHT22;15732;48.534;20.382;2024-03-07T11:02:27;6.80;99.90
28520;DHT22;15732;48.534;20.382;2024-03-07T11:04:59;6.70;99.90
28520;DHT22;15732;48.534;20.382;2024-03-07T11:07:31;6.70;99.90
28520;DHT22;15732;48.534;20.382;2024-03-07T11:10:05;6.70;99.90
28520;DHT22;15732;48.534;20.382;2024-03-07T11:12:41;6.60;99.90
28520;DHT22;15732;48.534;20.382;2024-03-07T11:15:11;6.60;99.90
28520;DHT22;15732;48.534;20.382;2024-03-07T11:17:44;6.60;99.90
28520;DHT22;15732;48.534;20.382;2024-03-07T11:20:23;6.70;99.90
28520;DHT22;15732;48.534;20.382;2024-03-07T11:22:50;6.70;99.90
28520;DHT22;15732;48.534;20.382;2024-03-07T11:25:27;6.70;99.90
28520;DHT22;15732;48.534;20.382;2024-03-07T11:28:01;6.80;99.90
28520;DHT22;15732;48.534;20.382;2024-03-07T11:30:28;6.70;99.90
28520;DHT22;15732;48.534;20.382;2024-03-07T11:33:02;6.70;99.90
28520;DHT22;15732;48.534;20.382;2024-03-07T11:35:33;6.80;99.90
28520;DHT22;15732;48.534;20.382;2024-03-07T11:38:07;6.80;99.90
28520;DHT22;15732;48.534;20.382;2024-03-07T11:43:06;6.60;99.90
28520;DHT22;15732;48.534;20.382;2024-03-07T11:45:37;6.60;99.90
28520;DHT22;15732;48.534;20.382;2024-03-07T11:48:14;6.60;99.90
28520;DHT22;15732;48.534;20.382;2024-03-07T11:50:45;6.60;99.90
28520;DHT22;15732;48.534;20.382;2024-03-07T11:53:12;6.50;99.90
28520;DHT22;15732;48.534;20.382;2024-03-07T11:55:40;6.60;99.90
28520;DHT22;15732;48.534;20.382;2024-03-07T11:58:15;6.60;99.90
28520;DHT22;15732;48.534;20.382;2024-03-07T12:00:48;6.60;99.90
28520;DHT22;15732;48.534;20.382;2024-03-07T12:03:20;6.50;99.90
28520;DHT22;15732;48.534;20.382;2024-03-07T12:05:48;6.50;99.90
28520;DHT22;15732;48.534;20.382;2024-03-07T12:08:20;6.50;99.90
28520;DHT22;15732;48.534;20.382;2024-03-07T12:10:49;6.50;99.90
28520;DHT22;15732;48.534;20.382;2024-03-07T12:13:24;6.40;99.90
28520;DHT22;15732;48.534;20.382;2024-03-07T12:15:53;6.40;99.90
28520;DHT22;15732;48.534;20.382;2024-03-07T12:18:22;6.40;99.90
28520;DHT22;15732;48.534;20.382;2024-03-07T12:20:53;6.40;99.90
28520;DHT22;15732;48.534;20.382;2024-03-07T12:23:23;6.40;99.90
28520;DHT22;15732;48.534;20.382;2024-03-07T12:26:04;6.40;99.90
28520;DHT22;15732;48.534;20.382;2024-03-07T12:28:34;6.40;99.90
28520;DHT22;15732;48.534;20.382;2024-03-07T12:31:07;6.50;99.90
28520;DHT22;15732;48.534;20.382;2024-03-07T12:33:45;6.40;99.90
28520;DHT22;15732;48.534;20.382;2024-03-07T12:36:17;6.50;99.90
28520;DHT22;15732;48.534;20.382;2024-03-07T12:38:54;6.50;99.90
28520;DHT22;15732;48.534;20.382;2024-03-07T12:41:22;6.50;99.90
28520;DHT22;15732;48.534;20.382;2024-03-07T12:43:53;6.50;99.90
28520;DHT22;15732;48.534;20.382;2024-03-07T12:46:21;6.60;99.90
28520;DHT22;15732;48.534;20.382;2024-03-07T12:48:48;6.60;99.90
28520;DHT22;15732;48.534;20.382;2024-03-07T12:51:19;6.60;99.90
28520;DHT22;15732;48.534;20.382;2024-03-07T12:53:51;6.60;99.90
28520;DHT22;15732;48.534;20.382;2024-03-07T12:56:19;6.60;99.90
28520;DHT22;15732;48.534;20.382;2024-03-07T12:58:50;6.50;99.90
28520;DHT22;15732;48.534;20.382;2024-03-07T13:01:17;6.50;99.90
28520;DHT22;15732;48.534;20.382;2024-03-07T13:03:47;6.50;99.90
28520;DHT22;15732;48.534;20.382;2024-03-07T13:06:14;6.50;99.90
28520;DHT22;15732;48.534;20.382;2024-03-07T13:08:48;6.60;99.90
28520;DHT22;15732;48.534;20.382;2024-03-07T13:11:19;6.50;99.90
28520;DHT22;15732;48.534;20.382;2024-03-07T13:13:50;6.50;99.90
28520;DHT22;15732;48.534;20.382;2024-03-07T13:16:19;6.50;99.90
28520;DHT22;15732;48.534;20.382;2024-03-07T13:18:46;6.40;99.90
28520;DHT22;15732;48.534;20.382;2024-03-07T13:21:17;6.50;99.90
28520;DHT22;15732;48.534;20.382;2024-03-07T13:23:45;6.50;99.90
28520;DHT22;15732;48.534;20.382;2024-03-07T13:26:20;6.30;99.90
28520;DHT22;15732;48.534;20.382;2024-03-07T13:28:53;6.40;99.90
28520;DHT22;15732;48.534;20.382;2024-03-07T13:31:25;6.50;99.90
28520;DHT22;15732;48.534;20.382;2024-03-07T13:33:56;6.50;99.90
28520;DHT22;15732;48.534;20.382;2024-03-07T13:36:30;6.30;99.90
28520;DHT22;15732;48.534;20.382;2024-03-07T13:39:01;6.40;99.90
28520;DHT22;15732;48.534;20.382;2024-03-07T13:41:29;6.30;99.90
28520;DHT22;15732;48.534;20.382;2024-03-07T13:43:57;6.30;99.90
28520;DHT22;15732;48.534;20.382;2024-03-07T13:46:28;6.30;99.90
28520;DHT22;15732;48.534;20.382;2024-03-07T13:48:57;6.30;99.90
28520;DHT22;15732;48.534;20.382;2024-03-07T13:51:36;6.40;99.90
28520;DHT22;15732;48.534;20.382;2024-03-07T13:54:03;6.50;99.90
28520;DHT22;15732;48.534;20.382;2024-03-07T14:26:40;6.40;99.90
28520;DHT22;15732;48.534;20.382;2024-03-07T14:29:38;6.20;99.90
28520;DHT22;15732;48.534;20.382;2024-03-07T14:32:11;6.20;99.90
28520;DHT22;15732;48.534;20.382;2024-03-07T14:35:03;6.30;99.90
28520;DHT22;15732;48.534;20.382;2024-03-07T14:37:52;6.30;99.90
28520;DHT22;15732;48.534;20.382;2024-03-07T14:40:23;6.40;99.90
28520;DHT22;15732;48.534;20.382;2024-03-07T14:42:55;6.30;99.90
28520;DHT22;15732;48.534;20.382;2024-03-07T14:45:36;6.40;99.90
28520;DHT22;15732;48.534;20.382;2024-03-07T14:48:11;6.50;99.90
28520;DHT22;15732;48.534;20.382;2024-03-07T14:50:46;6.40;99.90
28520;DHT22;15732;48.534;20.382;2024-03-07T14:53:16;6.40;99.90
28520;DHT22;15732;48.534;20.382;2024-03-07T14:55:49;6.40;99.90
28520;DHT22;15732;48.534;20.382;2024-03-07T14:58:21;6.50;99.90
28520;DHT22;15732;48.534;20.382;2024-03-07T15:00:52;6.50;99.90
28520;DHT22;15732;48.534;20.382;2024-03-07T15:03:25;6.50;99.90
28520;DHT22;15732;48.534;20.382;2024-03-07T15:05:55;6.50;99.90
28520;DHT22;15732;48.534;20.382;2024-03-07T15:08:26;6.50;99.90
28520;DHT22;15732;48.534;20.382;2024-03-07T15:11:12;6.50;99.90
28520;DHT22;15732;48.534;20.382;2024-03-07T15:13:43;6.50;99.90
28520;DHT22;15732;48.534;20.382;2024-03-07T15:16:15;6.40;99.90
28520;DHT22;15732;48.534;20.382;2024-03-07T15:18:42;6.40;99.90
28520;DHT22;15732;48.534;20.382;2024-03-07T15:21:13;6.50;99.90
28520;DHT22;15732;48.534;20.382;2024-03-07T15:23:44;6.40;99.90
28520;DHT22;15732;48.534;20.382;2024-03-07T15:26:11;6.30;99.90
28520;DHT22;15732;48.534;20.382;2024-03-07T15:28:39;6.30;99.90
28520;DHT22;15732;48.534;20.382;2024-03-07T15:31:10;6.30;99.90
28520;DHT22;15732;48.534;20.382;2024-03-07T15:33:40;6.30;99.90
28520;DHT22;15732;48.534;20.382;2024-03-07T15:36:13;6.20;99.90
28520;DHT22;15732;48.534;20.382;2024-03-07T15:38:45;6.20;99.90
28520;DHT22;15732;48.534;20.382;2024-03-07T15:41:16;6.10;99.90
28520;DHT22;15732;48.534;20.382;2024-03-07T15:43:47;6.10;99.90
28520;DHT22;15732;48.534;20.382;2024-03-07T15:46:18;6.20;99.90
28520;DHT22;15732;48.534;20.382;2024-03-07T15:48:50;6.10;99.90
28520;DHT22;15732;48.534;20.382;2024-03-07T15:51:21;6.10;99.90
28520;DHT22;15732;48.534;20.382;2024-03-07T15:53:52;6.10;99.90
28520;DHT22;15732;48.534;20.382;2024-03-07T15:56:24;6.10;99.90
28520;DHT22;15732;48.534;20.382;2024-03-07T15:58:55;6.10;99.90
28520;DHT22;15732;48.534;20.382;2024-03-07T16:01:22;6.10;99.90
28520;DHT22;15732;48.534;20.382;2024-03-07T16:03:53;6.20;99.90
28520;DHT22;15732;48.534;20.382;2024-03-07T16:06:21;6.10;99.90
28520;DHT22;15732;48.534;20.382;2024-03-07T16:08:52;6.10;99.90
28520;DHT22;15732;48.534;20.382;2024-03-07T16:11:25;6.20;99.90
28520;DHT22;15732;48.534;20.382;2024-03-07T16:13:52;6.10;99.90
28520;DHT22;15732;48.534;20.382;2024-03-07T16:16:23;6.10;99.90
28520;DHT22;15732;48.534;20.382;2024-03-07T16:18:50;6.10;99.90
28520;DHT22;15732;48.534;20.382;2024-03-07T16:21:19;6.10;99.90
28520;DHT22;15732;48.534;20.382;2024-03-07T16:23:46;6.10;99.90
28520;DHT22;15732;48.534;20.382;2024-03-07T16:26:17;6.10;99.90